Terminal Aerodrome Forecast
Issued by NWS Cleveland, OH

Home | Current Version | Previous Version | Graphics & Text | Print | Product List | Glossary On
Versions: 1 2 3 4 5 6 7 8 9 10 11 12 13 14 15 16 17 18
214
FTUS41 KCLE 130257 AAB
TAFMFD
TAF AMD
KMFD 130257Z 1303/1324 29012G20KT 6SM -SHSN BKN045
      TEMPO 1303/1305 2SM -SHSN BLSN BKN025
     FM130700 30012G22KT P6SM VCSH BKN035
     FM131200 30010KT P6SM SCT035
     FM131500 30010G18KT P6SM BKN025=

USA.gov is the U.S. government's official web portal to all federal, state and local government web resources and services.